KAGC METAR
PITTSBURGH/ALLEG, PA
Metar
KAGC 240253Z 25012G21KT 10SM CLR 16/12 A3017 RMK AO2 SLP223 T01560122 58001

02:53 UTC

Wind: 250° 12kt

Visibility: 10 SM

Sky:

Temp: 16 deg C / 60.8 deg F

Dewpoint: 12 deg C / 53.6 deg F

Pressure: 30.17 inHg

TAF
KAGC 232320Z 2400/2424 24010KT P6SM OVC025 FM240400 27005KT P6SM OVC015 FM241000 32005KT P6SM VCSH OVC008 FM241200 01003KT 2SM -SHRA BR OVC008 FM241700 05005KT 2SM SHRA BR OVC008 FM242300 09005KT 4SM -SHRA OVC010